Danboro, PA (18916)

3:07 PM EDT on April 25, 2017 (GMT -0400)
Doylestown | | Change Station

Elev 440 ft 40.32 °N, 75.12 °W | Updated 19 seconds ago

Light Rain
Light Rain Mist
54.7 °F
Feels Like 54.7 °F
N
3.0
Wind Variable Wind from West

Today
High -- | Low -- °F
--% Chance of Precip.
Yesterday
High -- | Low -- °F
Precip. -- in
Pressure 29.92 in
Visibility 3.0 miles
Clouds Overcast 500 ft
Dew Point 54 °F
Humidity 98%
Rainfall 0.05 in
Snow Depth Not available.
6:07 AM 7:50 PM
Waning Crescent, 1% visible
METAR KDYL 251854Z AUTO VRB06G17KT 3SM -RA BR OVC005 12/12 A2991 RMK AO2 RAB04 CIG 004V009 SLP131 P0002 T01220122
Pressure 29.92 in
Visibility 3.0 miles
Clouds Overcast 500 ft
Dew Point 54 °F
Humidity 98%
Rainfall 0.05 in
Snow Depth Not available.
6:07 AM 7:50 PM
Waning Crescent, 1% visible
METAR KDYL 251854Z AUTO VRB06G17KT 3SM -RA BR OVC005 12/12 A2991 RMK AO2 RAB04 CIG 004V009 SLP131 P0002 T01220122

Get Severe Weather Alerts

Thanks for signing up!

Be on the lookout for a verification email in your inbox.

You'll start receiving the daily forecast at 8 AM.

×

10-Day Weather Forecast

Almanac

Astronomy

Apr. 25, 2017 Rise Set
Actual Time
Civil Twilight
Nautical Twilight
Astronomical Twilight
Moon
Length of Visible Light
Length of Day
Tomorrow will be .
, % of the Moon is Illuminated

Today's Extremes

State Highs State Lows

Community

WunderPhotos

WunderBlog® & News

Nearby

Air Quality

  Air Quality AQ Index Pollutant
Not available.

Snow Depth

Station Depth Elevation

Earthquake Activity

City Distance Mag. Time & Date
Minimum magnitude displayed is 2.5.

Coastal Water Temperatures

Place Temperature

Stations

Nearby Weather Stations

Station Location Temp. Windchill Dew Point Humidity Wind Precip. Elev Updated Type
                   

Watches & Warnings

There are currently no watches in effect.